Time;durP1;ratioP1;P1;durP2;ratioP2;P2;SDS_P1;SDS_P2;PMS_P1;PMS_P2;Temp;Humidity;BMP_temperature;BMP_pressure;BME280_temperature;BME280_humidity;BME280_pressure;Samples;Min_cycle;Max_cycle;Signal;HPM_P1;HPM_P2
2022/11/19 00:00:50;;;;;;;25.30;21.25;;;;;;;7.34;95.26;100623.81;5094248;28;20038;-59
2022/11/19 00:03:19;;;;;;;24.88;21.38;;;;;;;7.15;95.23;100623.94;5100996;28;20503;-59
2022/11/19 00:05:46;;;;;;;26.13;22.20;;;;;;;7.22;94.44;100631.44;5095548;28;20039;-59
2022/11/19 00:08:15;;;;;;;27.70;22.90;;;;;;;7.14;94.39;100619.56;5095392;28;20073;-59
2022/11/19 00:10:41;;;;;;;33.45;26.73;;;;;;;6.95;94.42;100617.03;5094797;28;20024;-59
2022/11/19 00:13:09;;;;;;;30.67;25.15;;;;;;;6.98;94.79;100624.81;5095008;28;20052;-59
2022/11/19 00:15:36;;;;;;;29.63;24.27;;;;;;;6.88;93.92;100631.47;5095351;28;20024;-59
2022/11/19 00:18:02;;;;;;;28.15;23.98;;;;;;;6.84;94.19;100628.16;5095437;28;20028;-59
2022/11/19 00:20:31;;;;;;;35.38;27.80;;;;;;;6.83;94.96;100637.03;5106040;28;20091;-59
2022/11/19 00:22:59;;;;;;;30.77;24.73;;;;;;;6.88;94.18;100634.13;5112498;28;20055;-59
2022/11/19 00:25:26;;;;;;;38.47;28.75;;;;;;;6.78;94.83;100639.03;5101004;28;20028;-59
2022/11/19 00:27:51;;;;;;;36.65;28.67;;;;;;;6.73;94.56;100638.41;5093829;28;20024;-59
2022/11/19 00:30:18;;;;;;;33.88;26.45;;;;;;;6.70;95.03;100641.19;5093196;28;20028;-59
2022/11/19 00:32:46;;;;;;;37.70;29.27;;;;;;;6.69;95.02;100637.72;5095249;28;20024;-59
2022/11/19 00:35:12;;;;;;;34.22;26.13;;;;;;;6.80;95.54;100648.59;5080084;28;20039;-59
2022/11/19 00:37:38;;;;;;;33.65;26.90;;;;;;;6.72;94.95;100642.00;5095331;28;20157;-59
2022/11/19 00:40:10;;;;;;;40.22;29.27;;;;;;;6.68;94.52;100653.66;5076642;28;20484;-59
2022/11/19 00:42:36;;;;;;;30.08;24.05;;;;;;;6.59;94.21;100647.91;5094876;28;20785;-59
2022/11/19 00:45:01;;;;;;;30.60;25.15;;;;;;;6.47;93.85;100651.16;5094642;28;20028;-59
2022/11/19 00:47:26;;;;;;;32.88;25.27;;;;;;;6.55;94.66;100650.75;5076290;28;20028;-59
2022/11/19 00:49:52;;;;;;;27.73;23.85;;;;;;;6.51;94.46;100657.13;5094491;28;20028;-59
2022/11/19 00:52:18;;;;;;;30.77;23.58;;;;;;;6.47;93.96;100653.78;5098846;28;20058;-59
2022/11/19 00:54:43;;;;;;;28.02;23.35;;;;;;;6.63;94.07;100645.94;5101512;28;20395;-59
2022/11/19 00:57:08;;;;;;;28.92;23.25;;;;;;;6.60;94.09;100646.94;5092432;28;20092;-59
2022/11/19 00:59:34;;;;;;;29.65;23.05;;;;;;;6.53;93.29;100655.25;5093346;28;20039;-59
2022/11/19 01:02:00;;;;;;;31.38;23.65;;;;;;;6.47;93.76;100648.50;5094793;28;20081;-59
2022/11/19 01:04:25;;;;;;;30.17;23.77;;;;;;;6.48;93.45;100663.41;5094825;28;20059;-59
2022/11/19 01:06:50;;;;;;;31.63;25.13;;;;;;;6.43;93.33;100668.06;5094270;28;20540;-59
2022/11/19 01:09:16;;;;;;;31.55;23.88;;;;;;;6.40;92.88;100665.56;5092790;28;20074;-59
2022/11/19 01:11:41;;;;;;;29.90;24.55;;;;;;;6.24;93.29;100657.53;5106221;28;20027;-59
2022/11/19 01:14:07;;;;;;;29.00;24.23;;;;;;;6.22;92.78;100669.97;5101727;28;20483;-59
2022/11/19 01:16:39;;;;;;;32.42;24.65;;;;;;;6.24;93.25;100673.41;5092945;28;20024;-59
2022/11/19 01:19:07;;;;;;;34.47;27.60;;;;;;;6.29;93.49;100678.44;5094312;28;20019;-59
2022/11/19 01:21:34;;;;;;;36.17;27.70;;;;;;;6.20;92.81;100677.09;5092652;28;20038;-59
2022/11/19 01:24:01;;;;;;;34.95;25.77;;;;;;;6.27;92.11;100682.97;5095115;28;20067;-59
2022/11/19 01:26:27;;;;;;;27.52;23.35;;;;;;;6.12;91.55;100681.91;5093245;28;20020;-59
2022/11/19 01:28:53;;;;;;;31.70;26.80;;;;;;;6.16;92.59;100695.81;5108036;28;20491;-59
2022/11/19 01:31:26;;;;;;;30.67;25.25;;;;;;;6.09;92.91;100684.69;5107857;28;20024;-59
2022/11/19 01:33:52;;;;;;;29.67;24.95;;;;;;;6.20;92.62;100692.09;5093714;28;20051;-59
2022/11/19 01:36:23;;;;;;;28.65;25.50;;;;;;;6.13;92.66;100691.53;5099882;28;20039;-59
2022/11/19 01:38:53;;;;;;;29.92;24.95;;;;;;;6.02;92.00;100702.56;5093238;28;20036;-59
2022/11/19 01:41:30;;;;;;;30.52;25.85;;;;;;;6.04;91.96;100708.66;5091772;28;20429;-59
2022/11/19 01:43:58;;;;;;;32.35;25.45;;;;;;;6.04;91.28;100703.38;5087546;28;20035;-59
2022/11/19 01:46:26;;;;;;;28.85;24.83;;;;;;;5.91;91.38;100713.63;5087918;28;20028;-59
2022/11/19 01:48:52;;;;;;;32.33;26.38;;;;;;;5.96;91.21;100712.56;5093401;28;20069;-59
2022/11/19 01:51:29;;;;;;;28.92;25.65;;;;;;;5.99;92.41;100713.28;5093095;28;20024;-59
2022/11/19 01:53:59;;;;;;;29.90;26.30;;;;;;;6.02;92.04;100721.06;5097996;28;20027;-59
2022/11/19 01:56:26;;;;;;;30.75;25.70;;;;;;;5.82;91.31;100705.25;5073618;28;20383;-59
2022/11/19 01:58:57;;;;;;;32.67;26.02;;;;;;;5.82;92.18;100706.09;5088721;28;20020;-59
2022/11/19 02:01:22;;;;;;;28.58;23.95;;;;;;;5.92;91.82;100706.56;5093660;28;20024;-59
2022/11/19 02:03:50;;;;;;;29.92;25.83;;;;;;;6.05;92.71;100722.69;5102127;28;20032;-59
2022/11/19 02:06:16;;;;;;;33.10;27.55;;;;;;;5.98;92.55;100705.44;5112140;28;20023;-59
2022/11/19 02:08:44;;;;;;;30.08;25.98;;;;;;;6.14;92.51;100709.06;5108678;28;20031;-59
2022/11/19 02:11:32;;;;;;;28.15;25.02;;;;;;;6.18;91.71;100717.69;5092167;28;20112;-59
2022/11/19 02:14:13;;;;;;;26.73;23.75;;;;;;;6.14;89.96;100722.28;5078922;28;20407;-59
2022/11/19 02:17:17;;;;;;;27.75;24.75;;;;;;;6.06;90.47;100730.56;5072885;28;20051;-59
2022/11/19 02:19:54;;;;;;;27.10;24.27;;;;;;;6.05;90.07;100730.63;5059464;28;20384;-59
2022/11/19 02:22:41;;;;;;;27.00;24.20;;;;;;;5.96;90.04;100726.63;5084988;28;20020;-59
2022/11/19 02:25:25;;;;;;;25.63;22.92;;;;;;;5.94;89.96;100724.97;5073495;28;20024;-59
2022/11/19 02:28:24;;;;;;;25.90;23.13;;;;;;;5.87;90.20;100727.00;5088747;28;20058;-59
2022/11/19 02:30:53;;;;;;;26.02;23.08;;;;;;;5.76;90.50;100724.00;5077661;28;20440;-59
2022/11/19 02:33:35;;;;;;;26.20;23.50;;;;;;;5.75;91.20;100725.78;5079695;28;20030;-59
2022/11/19 02:36:11;;;;;;;26.98;23.33;;;;;;;5.72;90.80;100725.06;5077204;28;20025;-59
2022/11/19 02:38:43;;;;;;;28.75;24.08;;;;;;;5.74;90.55;100733.78;5073714;28;20029;-59
2022/11/19 02:41:32;;;;;;;28.40;24.10;;;;;;;5.72;92.26;100725.06;5099765;28;20031;-59
2022/11/19 02:46:52;;;;;;;25.02;22.45;;;;;;;5.57;91.82;100735.38;5077908;28;20043;-59
2022/11/19 02:49:22;;;;;;;23.42;20.70;;;;;;;5.51;90.96;100737.44;5090817;28;20485;-59
2022/11/19 02:51:49;;;;;;;22.58;20.08;;;;;;;5.51;90.57;100729.53;5074993;28;20036;-59
2022/11/19 02:54:16;;;;;;;20.08;17.92;;;;;;;5.40;90.20;100741.38;5087942;28;20039;-59
2022/11/19 02:56:57;;;;;;;21.70;19.48;;;;;;;5.43;90.52;100746.53;5072623;28;20021;-59
2022/11/19 03:05:13;;;;;;;18.63;16.80;;;;;;;5.11;89.59;100752.31;5091688;28;20386;-59
2022/11/19 03:07:39;;;;;;;16.77;15.07;;;;;;;5.07;88.69;100758.66;5090860;28;20455;-59
2022/11/19 03:10:09;;;;;;;17.90;16.13;;;;;;;5.07;88.29;100753.38;5109551;28;20154;-59
2022/11/19 03:12:34;;;;;;;17.42;15.50;;;;;;;5.03;89.22;100768.47;5090614;28;20047;-59
2022/11/19 03:18:43;;;;;;;17.95;16.17;;;;;;;4.95;89.05;100767.94;5106317;28;20085;-59
2022/11/19 03:21:14;;;;;;;17.67;15.98;;;;;;;4.94;88.54;100766.19;5089721;28;20068;-59
2022/11/19 03:23:43;;;;;;;17.48;15.88;;;;;;;4.78;88.19;100760.69;5089747;28;20032;-59
2022/11/19 03:26:29;;;;;;;19.25;17.25;;;;;;;4.87;88.97;100764.75;5102786;28;20030;-59
2022/11/19 03:29:00;;;;;;;18.20;16.42;;;;;;;4.75;89.51;100774.00;5072431;28;20428;-59
2022/11/19 03:31:28;;;;;;;19.17;17.30;;;;;;;4.71;88.95;100775.91;5071088;28;20024;-59
2022/11/19 03:33:59;;;;;;;18.75;16.88;;;;;;;4.81;88.01;100773.75;5071418;28;20028;-59
2022/11/19 03:36:31;;;;;;;20.05;18.15;;;;;;;4.73;89.03;100776.69;5076064;28;20077;-59
2022/11/19 03:39:02;;;;;;;20.38;18.38;;;;;;;4.71;88.13;100772.41;5086788;28;20023;-59
2022/11/19 03:41:28;;;;;;;20.42;18.10;;;;;;;4.78;88.52;100768.59;5090486;28;20023;-59
2022/11/19 03:44:06;;;;;;;20.13;18.02;;;;;;;4.96;88.49;100777.53;5078660;28;20445;-59
2022/11/19 03:46:38;;;;;;;21.60;19.33;;;;;;;4.85;88.05;100774.47;5083274;28;20040;-59
2022/11/19 03:49:08;;;;;;;20.70;18.48;;;;;;;4.74;87.00;100778.41;5088317;28;20391;-59
2022/11/19 03:51:33;;;;;;;;;;;;;;;4.93;88.20;100786.41;5089476;28;20386;-58
2022/11/19 03:53:59;;;;;;;21.48;19.17;;;;;;;4.81;86.95;100788.72;5090883;28;19908;-59
2022/11/19 03:56:28;;;;;;;22.23;19.38;;;;;;;4.80;87.91;100789.63;5092117;28;20065;-59
2022/11/19 03:58:58;;;;;;;23.90;21.48;;;;;;;4.78;88.65;100782.63;5090184;28;20467;-59
2022/11/19 04:01:24;;;;;;;21.70;19.50;;;;;;;4.64;87.97;100774.41;5076890;28;20029;-59
2022/11/19 04:06:34;;;;;;;23.85;21.45;;;;;;;4.62;88.37;100788.56;5081298;28;20343;-59
2022/11/19 04:08:59;;;;;;;23.50;21.02;;;;;;;4.69;88.03;100785.63;5086540;28;20024;-59
2022/11/19 04:11:25;;;;;;;23.95;20.48;;;;;;;4.71;87.16;100788.22;5073799;28;20063;-59
2022/11/19 04:13:50;;;;;;;26.77;22.70;;;;;;;4.67;87.23;100792.72;5104302;27;20055;-59
2022/11/19 04:16:16;;;;;;;25.60;22.90;;;;;;;4.65;86.66;100794.59;5139470;27;20034;-59
2022/11/19 04:18:41;;;;;;;25.63;22.92;;;;;;;4.61;86.80;100792.97;5100181;28;20405;-59
2022/11/19 04:21:09;;;;;;;27.58;24.50;;;;;;;4.49;86.54;100793.47;5089536;28;20496;-59
2022/11/19 04:23:34;;;;;;;26.95;24.00;;;;;;;4.45;85.65;100805.88;5077267;28;20115;-59
2022/11/19 04:26:00;;;;;;;27.25;24.38;;;;;;;4.37;87.55;100802.69;5072348;28;20040;-59
2022/11/19 04:28:26;;;;;;;27.70;24.52;;;;;;;4.43;87.31;100814.75;5104613;27;20051;-59
2022/11/19 04:30:51;;;;;;;27.73;24.70;;;;;;;4.42;86.45;100821.81;5088666;28;20050;-59
2022/11/19 04:33:17;;;;;;;28.17;25.27;;;;;;;4.39;87.01;100821.94;5090730;28;20026;-59
2022/11/19 04:35:44;;;;;;;30.42;26.15;;;;;;;4.27;88.06;100823.25;5083134;28;20103;-59
2022/11/19 04:38:09;;;;;;;29.95;26.85;;;;;;;4.38;87.45;100829.88;5082179;28;20030;-59
2022/11/19 04:40:35;;;;;;;29.77;26.60;;;;;;;4.26;86.90;100831.19;5090054;28;20546;-59
2022/11/19 04:43:03;;;;;;;28.15;25.13;;;;;;;4.29;87.84;100831.06;5094211;28;20024;-59
2022/11/19 04:45:31;;;;;;;30.77;27.27;;;;;;;4.36;86.84;100829.09;5097061;28;20374;-59
2022/11/19 04:47:56;;;;;;;31.17;27.52;;;;;;;4.29;87.16;100821.44;5094599;28;20052;-59
2022/11/19 04:50:22;;;;;;;30.75;27.52;;;;;;;4.14;87.43;100826.38;5094401;28;20054;-59
2022/11/19 04:52:47;;;;;;;31.50;27.75;;;;;;;4.13;87.70;100822.03;5072480;28;20135;-59
2022/11/19 04:55:13;;;;;;;32.22;28.73;;;;;;;4.19;87.88;100824.44;5085532;28;20033;-59
2022/11/19 04:57:38;;;;;;;32.08;28.35;;;;;;;4.10;87.02;100826.50;5075088;28;20542;-59
2022/11/19 05:00:08;;;;;;;32.08;28.65;;;;;;;4.03;88.13;100832.91;5086958;28;20112;-58
2022/11/19 05:02:33;;;;;;;32.80;27.83;;;;;;;4.06;87.19;100839.84;5094336;28;20024;-59
2022/11/19 05:04:58;;;;;;;29.70;26.48;;;;;;;4.17;86.74;100836.78;5086167;28;20082;-59
2022/11/19 05:07:24;;;;;;;34.55;30.67;;;;;;;4.11;87.55;100837.88;5090594;28;20110;-59
2022/11/19 05:09:49;;;;;;;30.70;27.45;;;;;;;4.23;87.22;100831.31;5080301;28;20108;-59
2022/11/19 05:12:15;;;;;;;31.13;27.85;;;;;;;4.25;86.52;100838.22;5073288;28;20052;-59
2022/11/19 05:14:45;;;;;;;32.65;29.23;;;;;;;4.21;86.93;100847.16;5085526;28;20479;-59
2022/11/19 05:17:13;;;;;;;;;;;;;;;4.35;87.40;100858.94;5115695;27;20024;-59
2022/11/19 05:19:43;;;;;;;31.08;27.83;;;;;;;4.12;87.23;100868.56;5072617;28;20019;-59
2022/11/19 05:22:09;;;;;;;31.67;27.58;;;;;;;4.07;86.63;100855.56;5087172;28;20032;-59
2022/11/19 05:24:34;;;;;;;32.50;29.00;;;;;;;4.07;86.79;100855.56;5089667;28;20035;-59
2022/11/19 05:27:00;;;;;;;32.45;29.02;;;;;;;4.17;87.12;100863.13;5073685;28;20062;-59
2022/11/19 05:29:26;;;;;;;32.85;29.38;;;;;;;4.18;86.11;100862.22;5076336;28;20549;-59
2022/11/19 05:31:54;;;;;;;32.17;28.83;;;;;;;4.16;86.39;100861.41;5096613;28;20039;-59
2022/11/19 05:34:19;;;;;;;31.08;27.73;;;;;;;4.12;85.35;100867.69;5095655;28;20028;-59
2022/11/19 05:36:47;;;;;;;33.50;29.88;;;;;;;4.21;87.41;100867.38;5074963;28;20035;-59
2022/11/19 05:39:13;;;;;;;33.40;29.95;;;;;;;4.13;86.94;100874.69;5092559;28;20017;-59
2022/11/19 05:41:38;;;;;;;33.17;29.80;;;;;;;4.30;85.83;100867.03;5091879;28;20020;-59
2022/11/19 05:44:04;;;;;;;33.25;29.75;;;;;;;4.15;85.64;100876.34;5097390;28;20043;-59
2022/11/19 05:46:30;;;;;;;35.45;31.75;;;;;;;4.03;85.37;100885.53;5094983;28;20037;-59
2022/11/19 05:48:58;;;;;;;34.47;30.83;;;;;;;3.74;84.28;100865.50;5091474;28;20562;-59
2022/11/19 05:51:23;;;;;;;35.00;31.45;;;;;;;3.77;84.50;100868.03;5090239;28;20028;-59
2022/11/19 05:53:49;;;;;;;35.17;31.50;;;;;;;3.84;85.48;100871.31;5073154;28;20073;-59
2022/11/19 05:56:14;;;;;;;35.13;31.45;;;;;;;3.78;84.24;100882.03;5072850;28;20032;-59
2022/11/19 05:58:39;;;;;;;35.72;32.13;;;;;;;3.70;85.18;100895.44;5126418;27;20448;-59
2022/11/19 06:01:07;;;;;;;35.75;32.05;;;;;;;3.81;85.60;100897.72;5073524;28;20025;-59
2022/11/19 06:03:33;;;;;;;35.97;32.22;;;;;;;3.89;84.68;100887.78;5087400;28;20081;-59
2022/11/19 06:05:58;;;;;;;37.15;33.25;;;;;;;3.82;84.73;100897.69;5107312;28;20039;-59
2022/11/19 06:08:24;;;;;;;37.15;33.35;;;;;;;3.95;85.54;100895.47;5092575;28;20093;-59
2022/11/19 06:10:49;;;;;;;37.30;33.58;;;;;;;3.96;85.39;100898.97;5072844;28;20103;-58
2022/11/19 06:13:15;;;;;;;37.13;33.28;;;;;;;3.91;84.20;100899.09;5112707;27;20048;-59
2022/11/19 06:15:40;;;;;;;35.42;31.88;;;;;;;3.94;85.33;100895.50;5092672;28;20024;-59
2022/11/19 06:18:08;;;;;;;35.10;31.50;;;;;;;3.98;85.42;100890.09;5096054;28;20513;-59
2022/11/19 06:20:35;;;;;;;35.05;31.45;;;;;;;4.01;84.25;100910.19;5080240;28;20374;-59
2022/11/19 06:23:00;;;;;;;37.03;33.30;;;;;;;3.98;85.08;100911.16;5085063;28;20046;-59
2022/11/19 06:25:25;;;;;;;35.85;32.25;;;;;;;3.89;84.98;100908.00;5091623;28;20036;-59
2022/11/19 06:27:51;;;;;;;37.15;33.35;;;;;;;3.87;85.37;100929.06;5085234;28;20438;-59
2022/11/19 06:30:16;;;;;;;36.65;32.95;;;;;;;3.85;85.19;100929.13;5080094;28;20025;-59
2022/11/19 06:32:42;;;;;;;35.75;32.03;;;;;;;3.99;85.15;100938.31;5096039;28;20024;-59
2022/11/19 06:35:09;;;;;;;38.38;33.70;;;;;;;3.85;85.70;100936.16;5094330;28;20028;-59
2022/11/19 06:37:34;;;;;;;37.97;34.00;;;;;;;3.81;85.74;100942.44;5092069;28;20506;-59
2022/11/19 06:40:00;;;;;;;38.47;34.20;;;;;;;3.98;85.55;100941.88;5085056;28;20059;-59
2022/11/19 06:42:35;;;;;;;37.80;33.38;;;;;;;3.89;85.13;100945.66;5091746;28;20023;-59
2022/11/19 06:45:10;;;;;;;39.25;35.13;;;;;;;3.89;85.91;100945.66;5083008;28;20475;-59
2022/11/19 06:47:36;;;;;;;38.03;34.03;;;;;;;3.95;85.16;100947.25;5073491;28;20024;-58
2022/11/19 06:50:03;;;;;;;41.08;36.85;;;;;;;3.67;85.12;100937.63;5093586;28;20024;-59
2022/11/19 06:52:29;;;;;;;39.88;35.63;;;;;;;3.59;83.86;100945.78;5093631;28;20036;-58
2022/11/19 06:54:55;;;;;;;41.88;37.45;;;;;;;3.69;85.01;100945.47;5090299;28;20119;-59
2022/11/19 06:57:20;;;;;;;41.75;37.33;;;;;;;3.62;84.09;100947.47;5088049;28;20116;-59
2022/11/19 06:59:46;;;;;;;44.47;39.40;;;;;;;3.67;84.18;100955.19;5071654;28;20353;-59
2022/11/19 07:02:11;;;;;;;43.97;39.17;;;;;;;3.74;83.31;100952.31;5076638;28;20024;-58
2022/11/19 07:04:38;;;;;;;43.30;38.85;;;;;;;3.69;83.66;100956.84;5092980;28;20040;-59
2022/11/19 07:07:04;;;;;;;43.65;39.03;;;;;;;3.74;83.53;100960.19;5074714;28;20086;-59
2022/11/19 07:09:29;;;;;;;43.90;39.20;;;;;;;3.67;83.00;100974.44;5098870;28;20035;-59
2022/11/19 07:11:55;;;;;;;44.83;39.40;;;;;;;3.63;82.62;100972.84;5109991;28;20031;-59
2022/11/19 07:14:20;;;;;;;45.95;40.35;;;;;;;3.58;83.14;100974.75;5094199;28;20044;-59
2022/11/19 07:16:46;;;;;;;44.20;38.95;;;;;;;3.60;83.00;100967.69;5080991;28;20036;-59
2022/11/19 07:19:11;;;;;;;46.47;41.13;;;;;;;3.46;82.88;100975.13;5094324;28;20513;-59
2022/11/19 07:21:37;;;;;;;48.80;40.30;;;;;;;3.39;83.12;100975.34;5093249;28;20154;-59
2022/11/19 07:24:06;;;;;;;47.20;39.97;;;;;;;3.32;83.56;100976.41;5088862;28;20386;-59
2022/11/19 07:26:32;;;;;;;65.10;52.40;;;;;;;3.28;84.35;100985.31;5091710;28;20055;-59
2022/11/19 07:29:06;;;;;;;63.63;52.10;;;;;;;3.40;83.24;100987.56;5074446;28;20113;-59
2022/11/19 07:31:32;;;;;;;55.00;48.55;;;;;;;3.22;83.83;100979.41;5092509;28;20037;-59
2022/11/19 07:34:00;;;;;;;54.72;45.72;;;;;;;3.34;84.07;100993.00;5092274;28;20020;-59
2022/11/19 07:36:26;;;;;;;53.28;44.17;;;;;;;3.26;84.11;100999.41;5091331;28;20024;-59
2022/11/19 07:38:51;;;;;;;53.08;46.15;;;;;;;3.39;84.59;101000.78;5091446;28;20047;-59
2022/11/19 07:44:12;;;;;;;49.42;43.50;;;;;;;3.23;82.56;100995.09;5075384;28;20032;-58
2022/11/19 07:46:39;;;;;;;50.42;42.75;;;;;;;3.28;82.79;101008.97;5091960;28;20107;-59
2022/11/19 07:49:05;;;;;;;53.30;42.60;;;;;;;3.27;81.94;101009.88;5075321;28;20121;-59
2022/11/19 07:51:33;;;;;;;49.25;42.47;;;;;;;3.30;83.54;101009.78;5094393;28;20074;-58
2022/11/19 07:53:58;;;;;;;52.70;45.05;;;;;;;3.38;82.43;101015.69;5093551;28;20284;-58
2022/11/19 07:56:24;;;;;;;47.10;41.90;;;;;;;3.24;81.87;101022.28;5088499;28;20029;-59
2022/11/19 07:58:49;;;;;;;46.85;41.25;;;;;;;3.18;82.01;101020.69;5090371;28;20032;-59
2022/11/19 08:01:20;;;;;;;58.92;51.58;;;;;;;3.28;82.33;101023.88;5091165;28;20026;-58
2022/11/19 08:03:47;;;;;;;49.13;41.90;;;;;;;3.39;81.32;101020.03;5090889;28;20378;-59
2022/11/19 08:06:14;;;;;;;51.58;43.05;;;;;;;3.38;81.49;101026.19;5085600;28;20095;-58
2022/11/19 08:08:41;;;;;;;48.72;41.85;;;;;;;3.47;81.78;101029.44;5070784;28;20395;-58
2022/11/19 08:11:10;;;;;;;54.45;45.88;;;;;;;3.43;82.22;101031.31;5088286;28;20043;-59
2022/11/19 08:13:36;;;;;;;48.30;42.38;;;;;;;3.34;81.16;101027.19;5089314;28;20507;-58
2022/11/19 08:16:04;;;;;;;53.28;45.55;;;;;;;3.43;81.17;101033.94;5091325;28;20371;-59
2022/11/19 08:18:30;;;;;;;49.25;43.88;;;;;;;3.53;81.79;101035.38;5075129;28;20103;-59
2022/11/19 08:21:03;;;;;;;46.45;41.40;;;;;;;3.49;81.70;101025.00;5097955;28;20017;-59
2022/11/19 08:23:28;;;;;;;48.88;42.60;;;;;;;3.54;80.97;101034.47;5090115;28;20526;-59
2022/11/19 08:25:56;;;;;;;49.63;42.35;;;;;;;3.47;81.81;101026.81;5077535;28;20028;-59
2022/11/19 08:28:21;;;;;;;48.20;40.05;;;;;;;3.55;81.05;101040.59;5082626;28;20024;-59
2022/11/19 08:30:47;;;;;;;48.38;42.42;;;;;;;3.44;81.29;101040.91;5080843;28;20047;-59
2022/11/19 08:33:13;;;;;;;46.90;40.03;;;;;;;3.42;81.26;101048.84;5092116;28;20509;-59
2022/11/19 08:35:39;;;;;;;48.80;40.67;;;;;;;3.53;81.19;101039.75;5096622;28;20055;-59
2022/11/19 08:38:05;;;;;;;47.55;40.63;;;;;;;3.50;81.70;101047.75;5097760;28;20502;-59
2022/11/19 08:40:30;;;;;;;47.47;40.38;;;;;;;3.54;80.68;101044.97;5092441;28;20052;-59
2022/11/19 08:42:58;;;;;;;48.50;40.85;;;;;;;3.57;80.69;101050.16;5100006;28;20036;-59
2022/11/19 08:45:34;;;;;;;49.00;40.45;;;;;;;3.50;81.48;101037.22;5094100;28;20024;-59
2022/11/19 08:48:03;;;;;;;47.95;40.42;;;;;;;3.59;80.99;101052.75;5094333;28;20439;-59
2022/11/19 08:50:29;;;;;;;46.75;39.80;;;;;;;3.54;80.46;101052.88;5088899;28;20034;-59
2022/11/19 08:52:55;;;;;;;47.28;38.65;;;;;;;3.52;79.64;101064.34;5102989;28;20034;-59
2022/11/19 08:55:22;;;;;;;47.75;41.67;;;;;;;3.52;80.12;101056.47;5108810;28;20107;-59
2022/11/19 08:57:47;;;;;;;47.15;38.83;;;;;;;3.46;79.30;101065.38;5092652;28;20031;-59
2022/11/19 09:00:13;;;;;;;43.42;38.05;;;;;;;3.53;80.09;101060.78;5092947;28;20012;-59
2022/11/19 09:02:41;;;;;;;46.92;38.20;;;;;;;3.49;81.36;101067.06;5095255;28;20039;-59
2022/11/19 09:05:07;;;;;;;48.33;40.10;;;;;;;3.35;80.63;101073.63;5094698;28;20414;-59
2022/11/19 09:07:35;;;;;;;47.15;40.35;;;;;;;3.39;79.95;101069.97;5094173;28;20028;-58
2022/11/19 09:10:00;;;;;;;49.80;40.58;;;;;;;3.34;80.60;101069.25;5084118;28;20028;-59
2022/11/19 09:12:29;;;;;;;45.33;39.97;;;;;;;3.34;80.61;101066.63;5097909;28;20031;-58
2022/11/19 09:14:54;;;;;;;48.92;40.85;;;;;;;3.38;80.48;101073.53;5106298;27;20027;-59
2022/11/19 09:17:20;;;;;;;50.70;40.70;;;;;;;3.27;81.27;101075.59;5095573;28;20024;-59
2022/11/19 09:19:45;;;;;;;48.25;41.42;;;;;;;3.28;81.22;101081.72;5112976;28;20024;-59
2022/11/19 09:22:11;;;;;;;47.22;40.72;;;;;;;3.41;80.89;101081.31;5094128;28;20100;-59
2022/11/19 09:24:36;;;;;;;53.72;43.00;;;;;;;3.32;81.42;101089.44;5091764;28;20055;-59
2022/11/19 09:27:02;;;;;;;62.70;46.05;;;;;;;3.23;80.66;101092.34;5092605;28;20046;-59
2022/11/19 09:29:27;;;;;;;63.88;47.75;;;;;;;3.17;79.71;101089.91;5093550;28;20062;-59
2022/11/19 09:31:52;;;;;;;60.97;43.50;;;;;;;3.16;80.09;101096.94;5092457;28;20021;-59
2022/11/19 09:34:18;;;;;;;59.42;45.10;;;;;;;3.20;79.20;101092.44;5083774;28;20035;-59
2022/11/19 09:36:43;;;;;;;54.47;42.80;;;;;;;3.21;80.81;101088.03;5113903;28;20032;-59
2022/11/19 09:39:09;;;;;;;45.63;39.25;;;;;;;3.24;80.62;101096.72;5113792;28;20382;-59
2022/11/19 09:41:37;;;;;;;48.90;39.25;;;;;;;3.33;81.38;101101.72;5105011;28;20103;-59
2022/11/19 09:44:21;;;;;;;50.28;40.25;;;;;;;3.44;81.37;101111.03;5093831;28;20482;-59
2022/11/19 09:47:11;;;;;;;48.28;39.83;;;;;;;3.37;81.94;101105.94;5093526;28;20479;-59
2022/11/19 09:49:45;;;;;;;57.67;45.65;;;;;;;3.33;81.38;101111.38;5093449;28;20028;-59
2022/11/19 09:52:18;;;;;;;46.88;39.30;;;;;;;3.23;81.31;101113.38;5094189;28;20039;-59
2022/11/19 09:54:55;;;;;;;46.22;37.70;;;;;;;3.38;79.95;101126.09;5073864;28;20032;-59
2022/11/19 09:57:38;;;;;;;53.67;44.20;;;;;;;3.34;80.91;101120.97;5071360;28;20021;-59
2022/11/19 10:00:07;;;;;;;64.30;50.63;;;;;;;3.22;81.13;101122.16;5102549;28;20024;-59
2022/11/19 10:02:36;;;;;;;58.38;46.83;;;;;;;3.28;79.72;101129.88;5110145;28;20103;-59
2022/11/19 10:05:02;;;;;;;52.25;42.33;;;;;;;3.21;80.60;101130.09;5113626;28;20080;-59
2022/11/19 10:07:57;;;;;;;52.65;42.10;;;;;;;3.26;80.58;101129.06;5112886;28;20821;-59
2022/11/19 10:10:29;;;;;;;49.33;41.05;;;;;;;3.22;80.23;101124.81;5113480;28;20027;-59
2022/11/19 10:13:12;;;;;;;57.92;45.10;;;;;;;3.23;79.15;101123.88;5111633;28;20051;-59
2022/11/19 10:15:59;;;;;;;62.88;49.22;;;;;;;3.30;79.96;101137.75;5100505;28;20049;-59
2022/11/19 10:18:49;;;;;;;55.42;42.03;;;;;;;3.29;79.80;101131.59;5092824;28;20027;-59
2022/11/19 10:21:25;;;;;;;;;;;;;;;3.42;79.01;101140.88;5092504;28;20525;-59
2022/11/19 10:23:59;;;;;;;67.10;49.72;;;;;;;3.08;79.88;101138.31;5136520;27;19919;-59
2022/11/19 10:26:39;;;;;;;64.22;49.45;;;;;;;2.94;79.11;101143.06;5092199;28;20040;-59
2022/11/19 10:29:14;;;;;;;67.45;54.20;;;;;;;2.97;80.34;101148.25;5091433;28;20131;-59
2022/11/19 10:31:45;;;;;;;54.58;42.80;;;;;;;2.91;79.64;101140.53;5097229;28;20043;-59
2022/11/19 10:34:36;;;;;;;52.10;41.80;;;;;;;3.06;79.24;101150.66;5092657;28;20032;-59
2022/11/19 10:37:12;;;;;;;52.67;45.10;;;;;;;2.89;78.90;101126.59;5124844;27;20023;-59
2022/11/19 10:39:47;;;;;;;56.13;45.85;;;;;;;3.02;78.35;101162.13;5092581;28;20016;-59
2022/11/19 10:42:24;;;;;;;54.28;44.20;;;;;;;2.96;79.74;101144.75;5092755;28;20028;-59
2022/11/19 10:44:56;;;;;;;51.15;41.60;;;;;;;3.00;80.13;101150.81;5092192;28;20494;-59
2022/11/19 10:47:36;;;;;;;52.60;43.00;;;;;;;3.09;80.00;101153.19;5094509;28;20035;-59
2022/11/19 10:50:01;;;;;;;48.53;40.13;;;;;;;3.12;79.28;101152.25;5091837;28;20024;-59
2022/11/19 10:52:32;;;;;;;41.08;35.33;;;;;;;3.14;79.02;101150.44;5096815;28;20050;-59
2022/11/19 10:55:03;;;;;;;38.92;34.40;;;;;;;3.30;79.83;101153.50;5094444;28;20034;-59
2022/11/19 10:57:31;;;;;;;40.88;33.67;;;;;;;3.19;77.98;101151.16;5091151;28;20039;-58
2022/11/19 10:59:59;;;;;;;39.40;34.15;;;;;;;3.08;78.13;101140.94;5092155;28;20023;-59
2022/11/19 11:02:47;;;;;;;41.13;35.85;;;;;;;3.13;78.39;101154.81;5102174;28;20055;-58
2022/11/19 11:05:16;;;;;;;43.70;37.42;;;;;;;3.09;78.69;101154.94;5110272;28;20069;-59
2022/11/19 11:07:57;;;;;;;42.35;34.50;;;;;;;3.05;77.19;101155.94;5095010;28;20055;-59
2022/11/19 11:10:22;;;;;;;45.88;39.15;;;;;;;3.22;77.95;101148.44;5095098;28;20031;-59
2022/11/19 11:15:44;;;;;;;48.25;40.85;;;;;;;3.04;78.27;101146.34;5093902;28;20434;-59
2022/11/19 11:18:10;;;;;;;66.35;51.22;;;;;;;3.13;78.48;101159.22;5091987;28;20027;-59
2022/11/19 11:20:38;;;;;;;45.25;38.97;;;;;;;3.00;78.36;101149.94;5091569;28;20436;-58
2022/11/19 11:23:16;;;;;;;46.15;37.05;;;;;;;2.98;78.73;101152.63;5102548;28;20398;-59
2022/11/19 11:26:00;;;;;;;38.85;34.50;;;;;;;3.12;77.57;101152.25;5106692;28;20028;-59
2022/11/19 11:28:26;;;;;;;41.45;35.38;;;;;;;3.06;77.73;101145.41;5083590;28;20023;-58
2022/11/19 11:30:58;;;;;;;61.03;43.63;;;;;;;3.12;78.23;101149.63;5094235;28;20046;-59
2022/11/19 11:33:28;;;;;;;36.28;32.22;;;;;;;3.12;77.60;101142.59;5100608;28;20107;-59
2022/11/19 11:35:57;;;;;;;43.03;34.92;;;;;;;3.19;76.86;101143.28;5099610;28;20114;-59
2022/11/19 11:38:25;;;;;;;65.95;48.10;;;;;;;3.11;77.84;101142.63;5091139;28;20175;-59
2022/11/19 11:41:03;;;;;;;39.40;33.05;;;;;;;3.07;76.86;101112.94;5096352;28;20020;-59
2022/11/19 11:43:31;;;;;;;39.40;32.67;;;;;;;3.03;77.92;101128.81;5110623;28;20027;-58
2022/11/19 11:46:03;;;;;;;34.17;29.98;;;;;;;3.09;76.99;101136.53;5096167;28;20086;-58